createdAt,value
2022-10-23T00:01:21.946Z,94230.78
2022-10-23T00:03:51.628Z,94234.28
2022-10-23T00:06:19.292Z,94222.88
2022-10-23T00:08:47.117Z,94214.75
2022-10-23T00:11:15.937Z,94210.41
2022-10-23T00:13:43.497Z,94217.72
2022-10-23T00:16:12.415Z,94223.16
2022-10-23T00:18:40.315Z,94222.34
2022-10-23T00:21:08.145Z,94213.09
2022-10-23T00:23:35.693Z,94216.91
2022-10-23T00:26:03.272Z,94215.00
2022-10-23T00:28:30.895Z,94228.56
2022-10-23T00:30:58.565Z,94221.50
2022-10-23T00:33:27.465Z,94223.44
2022-10-23T00:35:55.141Z,94219.88
2022-10-23T00:38:22.979Z,94219.88
2022-10-23T00:43:24.048Z,94226.16
2022-10-23T00:45:51.667Z,94231.03
2022-10-23T00:48:19.506Z,94226.69
2022-10-23T00:50:48.794Z,94221.25
2022-10-23T00:53:16.501Z,94219.63
2022-10-23T00:55:46.671Z,94219.63
2022-10-23T00:58:14.401Z,94218.81
2022-10-23T01:00:44.019Z,94217.97
2022-10-23T01:03:11.524Z,94216.34
2022-10-23T01:05:42.796Z,94214.72
2022-10-23T01:08:15.394Z,94212.84
2022-10-23T01:10:44.912Z,94220.97
2022-10-23T01:13:13.592Z,94220.16
2022-10-23T01:15:43.996Z,94213.09
2022-10-23T01:18:13.901Z,94204.16
2022-10-23T01:20:43.033Z,94212.31
2022-10-23T01:23:23.613Z,94198.97
2022-10-23T01:25:58.435Z,94191.09
2022-10-23T01:28:29.271Z,94193.81
2022-10-23T01:30:57.144Z,94185.41
2022-10-23T01:33:26.626Z,94181.06
2022-10-23T01:35:55.044Z,94182.16
2022-10-23T01:38:24.500Z,94182.16
2022-10-23T01:40:55.457Z,94179.44
2022-10-23T01:43:25.415Z,94174.00
2022-10-23T01:45:55.849Z,94175.09
2022-10-23T01:48:26.927Z,94172.38
2022-10-23T01:50:54.689Z,94164.25
2022-10-23T01:53:22.253Z,94169.94
2022-10-23T01:55:49.782Z,94163.72
2022-10-23T01:58:17.418Z,94162.88
2022-10-23T02:00:45.440Z,94164.78
2022-10-23T02:03:14.413Z,94157.75
2022-10-23T02:05:42.818Z,94155.03
2022-10-23T02:08:10.494Z,94151.22
2022-10-23T02:10:42.265Z,94145.78
2022-10-23T02:13:11.968Z,94147.69
2022-10-23T02:15:41.876Z,94142.50
2022-10-23T02:18:10.907Z,94141.72
2022-10-23T02:23:16.639Z,94135.47
2022-10-23T02:25:47.250Z,94132.22
2022-10-23T02:28:17.136Z,94135.75
2022-10-23T02:30:45.799Z,94131.41
2022-10-23T02:33:13.371Z,94131.41
2022-10-23T02:35:42.316Z,94120.00
2022-10-23T02:38:28.518Z,94121.66
2022-10-23T02:40:56.107Z,94133.59
2022-10-23T02:43:25.136Z,94129.78
2022-10-23T02:45:55.133Z,94122.72
2022-10-23T02:48:24.057Z,94123.81
2022-10-23T02:50:54.517Z,94118.38
2022-10-23T02:53:24.927Z,94130.03
2022-10-23T02:55:57.437Z,94121.91
2022-10-23T02:58:27.809Z,94121.09
2022-10-23T03:00:56.840Z,94119.44
2022-10-23T03:03:26.025Z,94118.66
2022-10-23T03:05:55.034Z,94115.41
2022-10-23T03:08:22.572Z,94106.16
2022-10-23T03:10:51.351Z,94106.16
2022-10-23T03:13:18.937Z,94109.97
2022-10-23T03:15:46.485Z,94113.47
2022-10-23T03:18:14.109Z,94111.84
2022-10-23T03:20:41.646Z,94104.53
2022-10-23T03:23:12.405Z,94108.34
2022-10-23T03:25:39.968Z,94109.44
2022-10-23T03:28:07.507Z,94105.91
2022-10-23T03:30:35.096Z,94120.28
2022-10-23T03:33:02.733Z,94108.59
2022-10-23T03:35:30.298Z,94109.66
2022-10-23T03:37:57.856Z,94115.09
2022-10-23T03:40:26.716Z,94117.81
2022-10-23T03:42:54.301Z,94106.94
2022-10-23T03:45:21.848Z,94100.69
2022-10-23T03:47:51.559Z,94092.31
2022-10-23T03:50:19.134Z,94092.56
2022-10-23T03:52:46.665Z,94093.66
2022-10-23T03:55:15.064Z,94090.94
2022-10-23T03:57:43.950Z,94086.59
2022-10-23T04:00:12.644Z,94092.84
2022-10-23T04:02:40.394Z,94090.13
2022-10-23T04:05:08.588Z,94087.41
2022-10-23T04:07:36.138Z,94076.81
2022-10-23T04:10:03.672Z,94070.59
2022-10-23T04:12:31.212Z,94076.03
2022-10-23T04:15:00.156Z,94085.25
2022-10-23T04:20:00.228Z,94085.25
2022-10-23T04:22:28.604Z,94074.41
2022-10-23T04:24:56.311Z,94075.19
2022-10-23T04:27:23.921Z,94071.41
2022-10-23T04:29:54.259Z,94076.81
2022-10-23T04:32:25.761Z,94074.94
2022-10-23T04:34:53.276Z,94075.75
2022-10-23T04:37:20.865Z,94074.09
2022-10-23T04:39:48.461Z,94072.22
2022-10-23T04:42:16.108Z,94067.88
2022-10-23T04:44:43.691Z,94065.44
2022-10-23T04:47:11.261Z,94063.56
2022-10-23T04:49:40.198Z,94060.00
2022-10-23T04:52:07.749Z,94059.22
2022-10-23T04:54:37.540Z,94056.50
2022-10-23T04:57:05.089Z,94052.97
2022-10-23T04:59:32.648Z,94058.38
2022-10-23T05:02:00.574Z,94057.28
2022-10-23T05:04:28.246Z,94057.56
2022-10-23T05:06:57.158Z,94051.34
2022-10-23T05:09:24.745Z,94046.16
2022-10-23T05:11:52.316Z,94045.38
2022-10-23T05:14:22.674Z,94039.94
2022-10-23T05:16:52.206Z,94044.53
2022-10-23T05:19:24.150Z,94037.50
2022-10-23T05:21:55.592Z,94043.75
2022-10-23T05:24:24.536Z,94036.69
2022-10-23T05:26:52.855Z,94044.84
2022-10-23T05:29:20.547Z,94043.75
2022-10-23T05:31:48.201Z,94044.84
2022-10-23T05:34:16.237Z,94046.72
2022-10-23T05:36:43.778Z,94052.97
2022-10-23T05:39:11.316Z,94055.69
2022-10-23T05:41:40.256Z,94055.94
2022-10-23T05:44:07.864Z,94043.47
2022-10-23T05:46:35.425Z,94045.09
2022-10-23T05:49:03.050Z,94038.03
2022-10-23T05:51:30.580Z,94045.34
2022-10-23T05:53:58.135Z,94027.44
2022-10-23T05:56:25.699Z,94032.88
2022-10-23T05:58:54.612Z,94033.69
2022-10-23T06:01:23.038Z,94038.31
2022-10-23T06:03:51.106Z,94043.72
2022-10-23T06:06:18.682Z,94041.84
2022-10-23T06:08:46.253Z,94042.94
2022-10-23T06:11:14.975Z,94044.81
2022-10-23T06:13:43.410Z,94044.03
2022-10-23T06:16:12.673Z,94041.56
2022-10-23T06:18:40.278Z,94048.91
2022-10-23T06:21:07.829Z,94052.41
2022-10-23T06:23:35.910Z,94046.19
2022-10-23T06:26:03.657Z,94052.41
2022-10-23T06:28:31.206Z,94048.91
2022-10-23T06:30:58.818Z,94047.00
2022-10-23T06:33:27.780Z,94048.34
2022-10-23T06:35:56.861Z,94047.25
2022-10-23T06:38:24.555Z,94047.53
2022-10-23T06:40:53.482Z,94057.31
2022-10-23T06:43:21.025Z,94058.09
2022-10-23T06:45:48.585Z,94062.72
2022-10-23T06:48:16.390Z,94062.16
2022-10-23T06:50:45.373Z,94056.78
2022-10-23T06:53:12.958Z,94060.72
2022-10-23T06:55:40.872Z,94063.00
2022-10-23T06:58:26.904Z,94065.53
2022-10-23T07:01:16.590Z,94071.06
2022-10-23T07:04:04.690Z,94071.88
2022-10-23T07:06:33.850Z,94074.09
2022-10-23T07:09:01.466Z,94076.53
2022-10-23T07:11:29.125Z,94077.34
2022-10-23T07:13:56.725Z,94077.63
2022-10-23T07:16:24.755Z,94075.44
2022-10-23T07:18:58.670Z,94068.69
2022-10-23T07:21:26.362Z,94071.13
2022-10-23T07:23:55.318Z,94065.16
2022-10-23T07:26:22.880Z,94069.50
2022-10-23T07:28:54.866Z,94062.72
2022-10-23T07:31:25.632Z,94054.59
2022-10-23T07:33:55.579Z,94057.84
2022-10-23T07:36:23.145Z,94055.94
2022-10-23T07:38:51.318Z,94054.59
2022-10-23T07:41:20.229Z,94057.28
2022-10-23T07:43:47.801Z,94057.03
2022-10-23T07:46:15.420Z,94053.25
2022-10-23T07:48:42.990Z,94052.94
2022-10-23T07:51:13.169Z,94058.94
2022-10-23T07:53:40.784Z,94055.66
2022-10-23T07:56:13.157Z,94054.59
2022-10-23T07:58:42.089Z,94064.38
2022-10-23T08:01:16.562Z,94059.75
2022-10-23T08:03:44.252Z,94062.44
2022-10-23T08:06:11.897Z,94060.56
2022-10-23T08:08:39.451Z,94060.56
2022-10-23T08:11:07.234Z,94064.06
2022-10-23T08:13:34.777Z,94063.00
2022-10-23T08:16:03.673Z,94055.69
2022-10-23T08:18:31.214Z,94058.38
2022-10-23T08:21:01.079Z,94053.50
2022-10-23T08:23:28.663Z,94051.63
2022-10-23T08:25:58.374Z,94054.03
2022-10-23T08:28:25.945Z,94048.63
2022-10-23T08:30:53.499Z,94045.66
2022-10-23T08:33:22.541Z,94038.31
2022-10-23T08:35:50.078Z,94035.31
2022-10-23T08:38:17.751Z,94033.41
2022-10-23T08:40:46.145Z,94042.13
2022-10-23T08:43:17.171Z,94038.31
2022-10-23T08:45:45.885Z,94034.53
2022-10-23T08:48:17.565Z,94039.66
2022-10-23T08:50:48.014Z,94032.34
2022-10-23T08:53:16.848Z,94031.25
2022-10-23T08:55:45.758Z,94036.69
2022-10-23T08:58:16.016Z,94033.69
2022-10-23T09:00:43.764Z,94027.19
2022-10-23T09:03:12.045Z,94018.75
2022-10-23T09:05:46.944Z,94020.38
2022-10-23T09:08:24.381Z,94022.00
2022-10-23T09:11:03.409Z,94026.38
2022-10-23T09:14:05.493Z,94021.50
2022-10-23T09:16:47.278Z,94022.59
2022-10-23T09:19:16.966Z,94019.34
2022-10-23T09:21:47.123Z,94023.66
2022-10-23T09:24:17.750Z,94019.03
2022-10-23T09:26:48.219Z,94020.41
2022-10-23T09:29:20.343Z,94019.31
2022-10-23T09:31:52.064Z,94015.25
2022-10-23T09:34:21.592Z,94013.06
2022-10-23T09:39:29.759Z,93992.16
2022-10-23T09:41:57.532Z,94005.16
2022-10-23T09:44:25.664Z,94001.38
2022-10-23T09:46:54.506Z,93995.38
2022-10-23T09:49:23.109Z,94003.25
2022-10-23T09:52:01.493Z,94001.91
2022-10-23T09:54:30.056Z,94004.31
2022-10-23T09:57:06.769Z,94005.69
2022-10-23T09:59:34.338Z,94008.94
2022-10-23T10:02:03.948Z,94007.31
2022-10-23T10:04:33.341Z,94015.16
2022-10-23T10:07:20.280Z,94012.72
2022-10-23T10:09:47.997Z,94008.34
2022-10-23T10:12:21.709Z,94004.53
2022-10-23T10:14:54.626Z,94002.91
2022-10-23T10:17:28.108Z,94001.53
2022-10-23T10:20:08.219Z,93998.53
2022-10-23T10:22:40.705Z,93989.28
2022-10-23T10:25:11.206Z,93997.19
2022-10-23T10:27:46.024Z,93991.44
2022-10-23T10:30:15.052Z,93991.44
2022-10-23T10:32:46.461Z,93982.22
2022-10-23T10:35:42.072Z,93981.94
2022-10-23T10:38:45.787Z,93981.94
2022-10-23T10:41:23.528Z,93974.59
2022-10-23T10:43:57.336Z,93978.97
2022-10-23T10:46:27.082Z,93978.97
2022-10-23T10:48:57.190Z,93976.50
2022-10-23T10:51:28.061Z,93970.25
2022-10-23T10:54:09.642Z,93974.88
2022-10-23T10:56:39.505Z,93966.75
2022-10-23T10:59:11.483Z,93964.81
2022-10-23T11:01:40.841Z,93953.94
2022-10-23T11:04:12.901Z,93948.50
2022-10-23T11:06:40.441Z,93956.41
2022-10-23T11:09:20.560Z,93961.56
2022-10-23T11:11:49.058Z,93955.03
2022-10-23T11:14:17.090Z,93955.56
2022-10-23T11:16:47.114Z,93962.63
2022-10-23T11:19:20.965Z,93949.03
2022-10-23T11:21:51.517Z,93946.31
2022-10-23T11:24:49.072Z,93942.25
2022-10-23T11:27:25.023Z,93935.97
2022-10-23T11:30:02.383Z,93937.06
2022-10-23T11:32:49.179Z,93921.88
2022-10-23T11:35:30.632Z,93918.91
2022-10-23T11:38:00.114Z,93921.09
2022-10-23T11:40:29.000Z,93924.38
2022-10-23T11:42:56.609Z,93921.13
2022-10-23T11:45:32.537Z,93922.50
2022-10-23T11:48:01.376Z,93919.25
2022-10-23T11:50:33.813Z,93922.22
2022-10-23T11:53:14.773Z,93914.38
2022-10-23T11:55:57.580Z,93916.53
2022-10-23T11:58:31.318Z,93909.47
2022-10-23T12:01:04.104Z,93905.97
2022-10-23T12:03:37.164Z,93906.25
2022-10-23T12:06:05.778Z,93899.19
2022-10-23T12:08:35.568Z,93894.84
2022-10-23T12:11:04.464Z,93890.50
2022-10-23T12:13:46.303Z,93885.88
2022-10-23T12:16:13.841Z,93885.34
2022-10-23T12:18:48.921Z,93891.88
2022-10-23T12:21:18.333Z,93885.66
2022-10-23T12:24:05.762Z,93886.75
2022-10-23T12:26:50.491Z,93880.75
2022-10-23T12:29:29.601Z,93881.59
2022-10-23T12:31:59.380Z,93885.38
2022-10-23T12:34:33.249Z,93876.41
2022-10-23T12:37:12.788Z,93879.44
2022-10-23T12:39:40.755Z,93878.59
2022-10-23T12:42:16.600Z,93872.38
2022-10-23T12:44:44.165Z,93868.03
2022-10-23T12:47:13.383Z,93868.03
2022-10-23T12:49:40.913Z,93859.06
2022-10-23T12:52:16.980Z,93861.78
2022-10-23T12:54:44.541Z,93861.00
2022-10-23T12:57:20.250Z,93854.75
2022-10-23T12:59:47.805Z,93861.00
2022-10-23T13:02:19.087Z,93861.00
2022-10-23T13:04:46.708Z,93858.28
2022-10-23T13:07:14.249Z,93854.75
2022-10-23T13:09:42.812Z,93851.19
2022-10-23T13:12:12.874Z,93850.41
2022-10-23T13:14:44.572Z,93846.06
2022-10-23T13:17:12.585Z,93846.06
2022-10-23T13:19:40.090Z,93846.06
2022-10-23T13:22:21.378Z,93843.34
2022-10-23T13:24:48.923Z,93841.72
2022-10-23T13:27:25.988Z,93844.44
2022-10-23T13:29:54.881Z,93846.34
2022-10-23T13:32:23.779Z,93841.72
2022-10-23T13:35:03.541Z,93835.47
2022-10-23T13:37:38.097Z,93831.97
2022-10-23T13:40:07.566Z,93831.97
2022-10-23T13:42:35.148Z,93834.94
2022-10-23T13:45:04.156Z,93834.94
2022-10-23T13:47:31.700Z,93830.34
2022-10-23T13:49:59.209Z,93831.44
2022-10-23T13:52:26.756Z,93834.16
2022-10-23T13:54:54.277Z,93828.72
2022-10-23T13:57:21.864Z,93827.06
2022-10-23T13:59:49.425Z,93830.88
2022-10-23T14:02:21.466Z,93828.16
2022-10-23T14:04:49.397Z,93836.31
2022-10-23T14:07:16.969Z,93834.69
2022-10-23T14:09:44.568Z,93829.25
2022-10-23T14:12:13.482Z,93823.03
2022-10-23T14:14:41.046Z,93824.94
2022-10-23T14:17:08.587Z,93823.31
2022-10-23T14:22:10.240Z,93835.25
2022-10-23T14:24:37.816Z,93827.94
2022-10-23T14:27:05.388Z,93830.66
2022-10-23T14:29:33.148Z,93832.53
2022-10-23T14:32:00.694Z,93829.84
2022-10-23T14:34:28.240Z,93838.25
2022-10-23T14:37:08.198Z,93828.47
2022-10-23T14:39:36.583Z,93827.38
2022-10-23T14:42:04.802Z,93826.59
2022-10-23T14:44:32.408Z,93827.69
2022-10-23T14:47:00.045Z,93827.69
2022-10-23T14:49:27.556Z,93825.75
2022-10-23T14:51:55.100Z,93831.50
2022-10-23T14:54:23.973Z,93828.78
2022-10-23T14:56:51.512Z,93831.75
2022-10-23T14:59:19.091Z,93827.94
2022-10-23T15:01:48.382Z,93814.38
2022-10-23T15:04:16.584Z,93827.16
2022-10-23T15:06:44.150Z,93824.44
2022-10-23T15:09:11.711Z,93820.91
2022-10-23T15:11:40.630Z,93814.94
2022-10-23T15:14:08.184Z,93813.84
2022-10-23T15:16:40.991Z,93806.81
2022-10-23T15:19:10.929Z,93800.56
2022-10-23T15:21:41.247Z,93797.84
2022-10-23T15:24:08.988Z,93793.22
2022-10-23T15:26:38.095Z,93792.13
2022-10-23T15:29:07.013Z,93801.06
2022-10-23T15:31:41.790Z,93793.72
2022-10-23T15:34:10.241Z,93793.41
2022-10-23T15:36:37.792Z,93796.31
2022-10-23T15:39:07.265Z,93788.69
2022-10-23T15:41:35.597Z,93795.41
2022-10-23T15:44:03.507Z,93787.75
2022-10-23T15:46:32.563Z,93784.44
2022-10-23T15:49:00.197Z,93773.50
2022-10-23T15:51:27.860Z,93778.91
2022-10-23T15:53:56.884Z,93782.41
2022-10-23T15:56:24.818Z,93785.34
2022-10-23T15:58:52.340Z,93780.13
2022-10-23T16:01:20.007Z,93781.72
2022-10-23T16:03:50.128Z,93782.16
2022-10-23T16:06:18.222Z,93786.16
2022-10-23T16:08:45.908Z,93777.47
2022-10-23T16:11:15.301Z,93767.03
2022-10-23T16:13:43.860Z,93767.78
2022-10-23T16:16:11.444Z,93756.34
2022-10-23T16:18:39.103Z,93757.41
2022-10-23T16:21:08.438Z,93767.41
2022-10-23T16:23:35.961Z,93765.72
2022-10-23T16:26:04.746Z,93765.97
2022-10-23T16:28:32.337Z,93756.38
2022-10-23T16:31:00.039Z,93761.28
2022-10-23T16:33:27.612Z,93755.53
2022-10-23T16:35:55.193Z,93750.09
2022-10-23T16:38:24.111Z,93756.34
2022-10-23T16:40:52.742Z,93762.91
2022-10-23T16:43:20.289Z,93771.56
2022-10-23T16:45:47.914Z,93764.72
2022-10-23T16:48:15.444Z,93770.41
2022-10-23T16:50:43.011Z,93773.94
2022-10-23T16:53:10.552Z,93782.09
2022-10-23T16:55:42.405Z,93788.84
2022-10-23T16:58:09.971Z,93798.34
2022-10-23T17:00:37.569Z,93795.63
2022-10-23T17:03:05.504Z,93803.78
2022-10-23T17:05:34.169Z,93808.44
2022-10-23T17:08:01.733Z,93814.69
2022-10-23T17:10:29.362Z,93823.66
2022-10-23T17:12:58.292Z,93827.50
2022-10-23T17:15:25.893Z,93838.38
2022-10-23T17:17:53.481Z,93840.00
2022-10-23T17:20:21.164Z,93837.28
2022-10-23T17:22:48.705Z,93841.06
2022-10-23T17:25:16.428Z,93844.28
2022-10-23T17:27:44.138Z,93841.28
2022-10-23T17:30:14.290Z,93829.59
2022-10-23T17:32:42.027Z,93852.97
2022-10-23T17:35:10.457Z,93840.44
2022-10-23T17:37:38.014Z,93834.75
2022-10-23T17:40:07.005Z,93828.47
2022-10-23T17:42:34.581Z,93840.47
2022-10-23T17:45:02.153Z,93844.00
2022-10-23T17:47:31.581Z,93840.19
2022-10-23T17:49:59.108Z,93856.53
2022-10-23T17:52:26.784Z,93876.09
2022-10-23T17:54:54.381Z,93876.09
2022-10-23T17:59:50.556Z,93867.41
2022-10-23T18:02:18.183Z,93869.31
2022-10-23T18:04:47.119Z,93861.13
2022-10-23T18:07:14.710Z,93858.13
2022-10-23T18:09:42.315Z,93854.03
2022-10-23T18:12:09.936Z,93858.66
2022-10-23T18:14:37.760Z,93860.75
2022-10-23T18:17:05.396Z,93858.59
2022-10-23T18:19:33.053Z,93860.28
2022-10-23T18:22:02.026Z,93866.59
2022-10-23T18:24:30.917Z,93861.44
2022-10-23T18:26:58.449Z,93858.81
2022-10-23T18:29:25.989Z,93849.63
2022-10-23T18:31:53.554Z,93841.53
2022-10-23T18:34:21.965Z,93834.25
2022-10-23T18:36:49.789Z,93839.75
2022-10-23T18:39:22.027Z,93845.22
2022-10-23T18:41:50.278Z,93843.09
2022-10-23T18:44:19.037Z,93834.69
2022-10-23T18:46:46.807Z,93833.88
2022-10-23T18:49:17.844Z,93830.41
2022-10-23T18:51:45.558Z,93828.53
2022-10-23T18:54:14.500Z,93826.09
2022-10-23T18:56:43.804Z,93830.50
2022-10-23T18:59:15.760Z,93838.91
2022-10-23T19:01:43.458Z,93839.81
2022-10-23T19:04:13.982Z,93853.66
2022-10-23T19:06:41.559Z,93837.13
2022-10-23T19:09:09.865Z,93841.22
2022-10-23T19:11:37.907Z,93837.44
2022-10-23T19:14:06.874Z,93837.19
2022-10-23T19:16:35.853Z,93830.13
2022-10-23T19:19:05.293Z,93832.34
2022-10-23T19:21:53.207Z,93834.53
2022-10-23T19:24:23.274Z,93829.63
2022-10-23T19:26:50.893Z,93834.56
2022-10-23T19:29:21.284Z,93830.47
2022-10-23T19:31:49.784Z,93844.06
2022-10-23T19:34:19.687Z,93848.97
2022-10-23T19:36:47.482Z,93841.09
2022-10-23T19:39:15.053Z,93844.91
2022-10-23T19:41:42.851Z,93850.66
2022-10-23T19:44:10.441Z,93846.28
2022-10-23T19:46:39.337Z,93837.63
2022-10-23T19:49:08.716Z,93842.53
2022-10-23T19:51:36.277Z,93849.06
2022-10-23T19:54:03.975Z,93846.34
2022-10-23T19:56:31.581Z,93846.59
2022-10-23T19:58:59.102Z,93857.78
2022-10-23T20:01:26.792Z,93856.41
2022-10-23T20:03:56.135Z,93857.50
2022-10-23T20:06:25.042Z,93864.03
2022-10-23T20:08:52.573Z,93877.63
2022-10-23T20:11:21.344Z,93884.16
2022-10-23T20:13:48.971Z,93889.84
2022-10-23T20:16:19.965Z,93901.81
2022-10-23T20:18:47.575Z,93904.53
2022-10-23T20:21:16.535Z,93901.03
2022-10-23T20:23:44.169Z,93897.47
2022-10-23T20:26:13.063Z,93901.56
2022-10-23T20:28:40.653Z,93912.41
2022-10-23T20:31:09.291Z,93925.22
2022-10-23T20:33:36.863Z,93931.72
2022-10-23T20:36:04.582Z,93939.06
2022-10-23T20:38:33.781Z,93948.03
2022-10-23T20:41:05.557Z,93950.22
2022-10-23T20:43:33.683Z,93945.06
2022-10-23T20:46:04.290Z,93953.19
2022-10-23T20:48:35.124Z,93962.44
2022-10-23T20:51:03.816Z,93960.81
2022-10-23T20:53:32.821Z,93977.38
2022-10-23T20:56:00.393Z,93978.19
2022-10-23T20:58:27.933Z,93989.34
2022-10-23T21:00:57.217Z,93989.34
2022-10-23T21:03:24.952Z,93988.53
2022-10-23T21:05:52.522Z,93987.72
2022-10-23T21:08:20.081Z,93991.25
2022-10-23T21:10:49.054Z,93986.09
2022-10-23T21:13:16.643Z,93998.56
2022-10-23T21:15:44.210Z,94002.38
2022-10-23T21:18:26.448Z,94003.47
2022-10-23T21:21:02.702Z,94004.56
2022-10-23T21:23:30.265Z,94024.66
2022-10-23T21:26:02.194Z,94032.81
2022-10-23T21:28:32.361Z,94033.91
2022-10-23T21:31:03.214Z,94041.22
2022-10-23T21:33:30.757Z,94045.03
2022-10-23T21:36:04.802Z,94047.75
2022-10-23T21:38:40.677Z,94063.25
2022-10-23T21:41:10.300Z,94071.38
2022-10-23T21:43:37.857Z,94072.47
2022-10-23T21:46:05.540Z,94088.75
2022-10-23T21:48:33.306Z,94091.47
2022-10-23T21:51:00.933Z,94100.69
2022-10-23T21:53:28.728Z,94097.97
2022-10-23T21:55:56.390Z,94099.88
2022-10-23T21:58:25.298Z,94102.59
2022-10-23T22:00:52.845Z,94107.50
2022-10-23T22:03:20.398Z,94108.28
2022-10-23T22:05:48.006Z,94118.34
2022-10-23T22:08:15.569Z,94122.16
2022-10-23T22:10:43.160Z,94131.09
2022-10-23T22:13:10.723Z,94135.75
2022-10-23T22:15:39.620Z,94143.06
2022-10-23T22:18:07.253Z,94149.56
2022-10-23T22:20:34.801Z,94154.22
2022-10-23T22:23:02.352Z,94148.78
2022-10-23T22:25:30.606Z,94157.97
2022-10-23T22:27:58.221Z,94157.19
2022-10-23T22:30:25.776Z,94159.91
2022-10-23T22:32:54.688Z,94151.75
2022-10-23T22:35:22.252Z,94156.34
2022-10-23T22:37:49.777Z,94150.94
2022-10-23T22:40:17.565Z,94144.69
2022-10-23T22:42:45.446Z,94154.72
2022-10-23T22:45:13.195Z,94146.59
2022-10-23T22:47:40.705Z,94146.59
2022-10-23T22:50:10.113Z,94150.38
2022-10-23T22:52:37.666Z,94146.88
2022-10-23T22:55:06.006Z,94146.88
2022-10-23T22:57:33.667Z,94133.31
2022-10-23T23:00:01.225Z,94134.38
2022-10-23T23:02:28.802Z,94130.84
2022-10-23T23:04:56.317Z,94142.53
2022-10-23T23:07:25.216Z,94135.47
2022-10-23T23:09:52.769Z,94121.91
2022-10-23T23:12:20.309Z,94123.78
2022-10-23T23:14:48.052Z,94122.97
2022-10-23T23:17:15.573Z,94112.09
2022-10-23T23:19:43.103Z,94115.13
2022-10-23T23:22:10.644Z,94122.44
2022-10-23T23:24:39.492Z,94123.25
2022-10-23T23:27:07.092Z,94123.25
2022-10-23T23:29:34.765Z,94128.69
2022-10-23T23:32:02.296Z,94137.91
2022-10-23T23:34:29.965Z,94142.53
2022-10-23T23:36:57.482Z,94142.53
2022-10-23T23:39:25.997Z,94133.56
2022-10-23T23:42:13.441Z,94128.16
2022-10-23T23:44:50.261Z,94136.56
2022-10-23T23:47:28.543Z,94136.56
2022-10-23T23:49:56.104Z,94133.84
2022-10-23T23:52:23.648Z,94141.97
2022-10-23T23:54:51.195Z,94151.22
2022-10-23T23:57:20.073Z,94165.63
2022-10-23T23:59:47.785Z,94164.78
